»·PEaware :: SWA743 KPDX-KOAK

SWA743 :: KPDX-KOAK

FLIGHT INFORMATION

Flight Status: Arrived
Operator:
Southwest Airlines
More flights by this operator :: More flights under this callsign
Pilot: Matthew M. (27032)
Aircraft: BOEING 737-800
(B738)
More flights by this aircraft type
Origin: KPDX Portland Intl
United States
Destination: KOAK Metro Oakland Intl
United States
More flights between these airports :: More routes between these airports
Route: MINNE5 HISKU Q5 HUPTU SPAMY WNDSR2
File this flight plan on PilotEdge
Remarks: RMK / SIMBRIEF
Altitude:
(Current/Filed)
35,000ft
Speed:
(Current/Filed)
454kts
Departed: 16-Jun-20 10:35 AM
Arrived: 16-Jun-20 11:55 AM
Distance/Time
Traveled:
473nm/1:20
Distance/Time
To Go:
Arrived

Flight Plot

Page will automatically refresh every two minutes.


Map Options




Map Legend


Flown Route
Filed Route
Departure Airport
Arrival Airport
Navaid (VOR, NDB)
Fix

Horizontal Profiles

Position Reports

Time Latitude Longitude Heading Altitude Ground
Speed
16-Jun-20 10:16 45.590036 -122.597899 208 33ft 0kts
16-Jun-20 10:17 45.590036 -122.597899 208 33ft 0kts
16-Jun-20 10:18 45.590036 -122.597899 208 33ft 0kts
16-Jun-20 10:19 45.590036 -122.597899 208 33ft 0kts
16-Jun-20 10:20 45.590036 -122.597899 208 33ft 0kts
16-Jun-20 10:21 45.590036 -122.597899 208 33ft 0kts
16-Jun-20 10:22 45.590036 -122.597899 208 33ft 0kts
16-Jun-20 10:23 45.590036 -122.597899 208 33ft 0kts
16-Jun-20 10:24 45.590036 -122.597899 208 33ft 0kts
16-Jun-20 10:25 45.590036 -122.597899 208 33ft 0kts
16-Jun-20 10:26 45.590036 -122.597899 208 33ft 0kts
16-Jun-20 10:27 45.590036 -122.597899 208 33ft 0kts
16-Jun-20 10:28 45.590368 -122.597636 208 33ft 2kts
16-Jun-20 10:29 45.590482 -122.597018 301 33ft 1kts
16-Jun-20 10:30 45.590469 -122.596985 299 33ft 0kts
16-Jun-20 10:31 45.590469 -122.596985 299 33ft 0kts
16-Jun-20 10:32 45.591385 -122.598944 314 33ft 22kts
16-Jun-20 10:33 45.593959 -122.598158 40 33ft 12kts
16-Jun-20 10:34 45.593266 -122.591692 119 37ft 86kts
16-Jun-20 10:35 45.572028 -122.532740 105 1880ft 194kts
16-Jun-20 10:36 45.562832 -122.442078 104 4408ft 252kts
16-Jun-20 10:37 45.535681 -122.348456 136 7785ft 266kts
16-Jun-20 10:38 45.466725 -122.316915 196 10517ft 289kts
16-Jun-20 10:39 45.404530 -122.399540 246 12098ft 346kts
16-Jun-20 10:40 45.364736 -122.526944 246 14926ft 359kts
16-Jun-20 10:41 45.322573 -122.658084 246 17443ft 372kts
16-Jun-20 10:43 45.278816 -122.794429 246 19738ft 385kts
16-Jun-20 10:44 45.223629 -122.925384 220 21823ft 401kts
16-Jun-20 10:45 45.115100 -122.964514 181 23661ft 424kts
16-Jun-20 10:46 44.995054 -122.960835 183 25229ft 438kts
16-Jun-20 10:47 44.871670 -122.956739 184 26782ft 449kts
16-Jun-20 10:48 44.747429 -122.952494 184 28602ft 448kts
16-Jun-20 10:49 44.623267 -122.948278 185 30260ft 447kts
16-Jun-20 10:50 44.499357 -122.944092 185 31772ft 446kts
16-Jun-20 10:51 44.375550 -122.940283 185 33151ft 446kts
16-Jun-20 10:52 44.251733 -122.936493 185 34444ft 445kts
16-Jun-20 10:53 44.127892 -122.932741 185 35148ft 452kts
16-Jun-20 10:54 43.999628 -122.928880 185 35144ft 467kts
16-Jun-20 10:55 43.873363 -122.924965 185 35146ft 462kts
16-Jun-20 10:56 43.745235 -122.921089 185 35146ft 463kts
16-Jun-20 10:57 43.616677 -122.917205 185 35149ft 463kts
16-Jun-20 10:57 43.509452 -122.913984 185 35155ft 462kts
16-Jun-20 10:59 43.359331 -122.909494 185 35155ft 462kts
16-Jun-20 11:00 43.231034 -122.905676 185 35155ft 462kts
16-Jun-20 11:00 43.124084 -122.902504 185 35155ft 462kts
16-Jun-20 11:02 42.974178 -122.898089 188 35156ft 465kts
16-Jun-20 11:02 42.868333 -122.895023 194 35155ft 472kts
16-Jun-20 11:03 42.738466 -122.891165 194 35155ft 470kts
16-Jun-20 11:04 42.608013 -122.887369 194 35155ft 470kts
16-Jun-20 11:05 42.477675 -122.883593 194 35155ft 471kts
16-Jun-20 11:06 42.346974 -122.879891 194 35155ft 470kts
16-Jun-20 11:07 42.216045 -122.876181 194 35155ft 470kts
16-Jun-20 11:08 42.092347 -122.872655 194 35156ft 470kts
16-Jun-20 11:09 41.971008 -122.869192 194 35149ft 468kts
16-Jun-20 11:10 41.874061 -122.866484 194 35146ft 471kts
16-Jun-20 11:11 41.734135 -122.862500 194 35146ft 469kts
16-Jun-20 11:12 41.587070 -122.858381 194 35145ft 470kts
16-Jun-20 11:13 41.448933 -122.854519 194 35146ft 470kts
16-Jun-20 11:14 41.319485 -122.850739 193 35145ft 471kts
16-Jun-20 11:15 41.188130 -122.842749 192 35146ft 473kts
16-Jun-20 11:16 41.056574 -122.834740 191 35119ft 470kts
16-Jun-20 11:17 40.927226 -122.826960 191 35055ft 463kts
16-Jun-20 11:18 40.804654 -122.819722 190 35055ft 464kts
16-Jun-20 11:19 40.675733 -122.812120 190 35053ft 464kts
16-Jun-20 11:20 40.547494 -122.804573 191 35054ft 464kts
16-Jun-20 11:21 40.418893 -122.797052 190 35055ft 465kts
16-Jun-20 11:22 40.290116 -122.789514 190 35055ft 464kts
16-Jun-20 11:23 40.160868 -122.782035 190 34358ft 467kts
16-Jun-20 11:24 40.032155 -122.774530 190 32857ft 465kts
16-Jun-20 11:25 39.902283 -122.767082 189 31354ft 471kts
16-Jun-20 11:26 39.775361 -122.759770 188 29899ft 474kts
16-Jun-20 11:27 39.643802 -122.752217 187 28406ft 475kts
16-Jun-20 11:28 39.513772 -122.735700 179 27378ft 458kts
16-Jun-20 11:29 39.393495 -122.688351 167 26384ft 455kts
16-Jun-20 11:30 39.276390 -122.629197 166 25519ft 446kts
16-Jun-20 11:31 39.159482 -122.590822 179 24679ft 425kts
16-Jun-20 11:32 39.046649 -122.570128 179 23219ft 401kts
16-Jun-20 11:33 38.934669 -122.542128 175 22623ft 412kts
16-Jun-20 11:34 38.827366 -122.515010 174 20762ft 397kts
16-Jun-20 11:35 38.720832 -122.488365 174 18868ft 384kts
16-Jun-20 11:36 38.617834 -122.468716 178 17007ft 370kts
16-Jun-20 11:37 38.517074 -122.453558 177 15146ft 359kts
16-Jun-20 11:38 38.419487 -122.438720 177 13308ft 350kts
16-Jun-20 11:39 38.324017 -122.424232 176 11468ft 341kts
16-Jun-20 11:40 38.232528 -122.410346 175 10294ft 314kts
16-Jun-20 11:41 38.148887 -122.397566 176 9169ft 300kts
16-Jun-20 11:42 38.066701 -122.384986 176 7774ft 296kts
16-Jun-20 11:43 37.992926 -122.351731 146 6989ft 281kts
16-Jun-20 11:44 37.930381 -122.292221 145 6311ft 279kts
16-Jun-20 11:45 37.871267 -122.235871 145 5341ft 272kts
16-Jun-20 11:46 37.811371 -122.178922 145 4989ft 271kts
16-Jun-20 11:47 37.759980 -122.113579 129 4992ft 245kts
16-Jun-20 11:48 37.719237 -122.047399 130 4202ft 235kts
16-Jun-20 11:49 37.665904 -122.019738 208 2637ft 210kts
16-Jun-20 11:50 37.631115 -122.068286 253 1989ft 175kts
16-Jun-20 11:51 37.641598 -122.122107 296 1884ft 153kts
16-Jun-20 11:52 37.667130 -122.161916 307 1057ft 139kts
16-Jun-20 11:53 37.692045 -122.199851 306 326ft 139kts
16-Jun-20 11:54 37.709960 -122.225930 343 13ft 22kts
16-Jun-20 11:55 37.711752 -122.223479 45 13ft 17kts
16-Jun-20 11:56 37.709976 -122.217885 131 13ft 24kts
16-Jun-20 11:57 37.710332 -122.215518 300 14ft 6kts
16-Jun-20 11:58 37.710385 -122.215633 300 14ft 0kts
16-Jun-20 11:59 37.710385 -122.215633 300 14ft 0kts
16-Jun-20 12:00 37.710385 -122.215633 300 14ft 0kts
16-Jun-20 12:01 37.710385 -122.215633 300 14ft 0kts
16-Jun-20 12:02 37.710385 -122.215633 300 14ft 0kts
16-Jun-20 12:03 37.710385 -122.215633 300 14ft 0kts
16-Jun-20 12:04 37.710385 -122.215633 300 14ft 0kts
16-Jun-20 12:05 37.710385 -122.215633 300 14ft 0kts
16-Jun-20 12:06 37.710385 -122.215633 300 14ft 0kts
16-Jun-20 12:07 37.710385 -122.215633 300 14ft 0kts
16-Jun-20 12:08 37.710385 -122.215633 300 14ft 0kts

Navigation Log

Ident Type
Flight plan parsing failed, navigation log unavailable